sensor_id;sensor_type;location;lat;lon;timestamp;P1;durP1;ratioP1;P2;durP2;ratioP2
75935;SDS011;64614;32.062;34.834;2022-12-18T00:23:09;65.40;;;37.10;;
75935;SDS011;64614;32.062;34.834;2022-12-18T00:25:36;60.70;;;34.85;;
75935;SDS011;64614;32.062;34.834;2022-12-18T02:13:46;33.63;;;18.95;;
75935;SDS011;64614;32.062;34.834;2022-12-18T02:31:17;28.60;;;15.50;;
75935;SDS011;64614;32.062;34.834;2022-12-18T02:57:31;31.10;;;16.52;;
75935;SDS011;64614;32.062;34.834;2022-12-18T03:29:42;21.67;;;10.30;;
75935;SDS011;64614;32.062;34.834;2022-12-18T03:51:01;18.40;;;10.07;;
75935;SDS011;64614;32.062;34.834;2022-12-18T04:29:05;20.15;;;7.95;;
75935;SDS011;64614;32.062;34.834;2022-12-18T05:25:05;13.60;;;5.45;;
75935;SDS011;64614;32.062;34.834;2022-12-18T05:30:11;13.48;;;5.95;;
75935;SDS011;64614;32.062;34.834;2022-12-18T05:32:37;14.63;;;5.80;;
75935;SDS011;64614;32.062;34.834;2022-12-18T06:00:48;13.48;;;5.20;;
75935;SDS011;64614;32.062;34.834;2022-12-18T06:16:02;12.50;;;5.13;;
75935;SDS011;64614;32.062;34.834;2022-12-18T06:18:28;12.07;;;5.25;;
75935;SDS011;64614;32.062;34.834;2022-12-18T06:20:55;10.20;;;4.78;;
75935;SDS011;64614;32.062;34.834;2022-12-18T06:49:14;10.50;;;4.60;;
75935;SDS011;64614;32.062;34.834;2022-12-18T07:09:48;11.70;;;5.20;;
75935;SDS011;64614;32.062;34.834;2022-12-18T07:41:29;12.70;;;5.05;;
75935;SDS011;64614;32.062;34.834;2022-12-18T07:43:56;11.23;;;5.20;;
75935;SDS011;64614;32.062;34.834;2022-12-18T07:46:22;14.23;;;6.03;;
75935;SDS011;64614;32.062;34.834;2022-12-18T08:01:44;15.75;;;6.20;;
75935;SDS011;64614;32.062;34.834;2022-12-18T08:06:39;13.07;;;6.28;;
75935;SDS011;64614;32.062;34.834;2022-12-18T08:22:02;14.38;;;5.70;;
75935;SDS011;64614;32.062;34.834;2022-12-18T08:47:44;16.67;;;6.22;;
75935;SDS011;64614;32.062;34.834;2022-12-18T08:52:45;13.40;;;5.80;;
75935;SDS011;64614;32.062;34.834;2022-12-18T09:10:43;12.65;;;5.50;;
75935;SDS011;64614;32.062;34.834;2022-12-18T09:30:03;13.88;;;5.60;;
75935;SDS011;64614;32.062;34.834;2022-12-18T09:37:39;13.52;;;5.97;;
75935;SDS011;64614;32.062;34.834;2022-12-18T10:00:50;9.20;;;4.60;;
75935;SDS011;64614;32.062;34.834;2022-12-18T10:03:17;13.68;;;5.30;;
75935;SDS011;64614;32.062;34.834;2022-12-18T10:08:38;9.40;;;4.97;;
75935;SDS011;64614;32.062;34.834;2022-12-18T10:11:31;10.18;;;5.03;;
75935;SDS011;64614;32.062;34.834;2022-12-18T13:43:54;58.95;;;20.90;;
75935;SDS011;64614;32.062;34.834;2022-12-18T13:46:29;58.03;;;22.92;;
75935;SDS011;64614;32.062;34.834;2022-12-18T13:51:39;29.13;;;12.15;;
75935;SDS011;64614;32.062;34.834;2022-12-18T13:57:02;21.42;;;9.20;;
75935;SDS011;64614;32.062;34.834;2022-12-18T13:59:35;22.52;;;8.48;;
75935;SDS011;64614;32.062;34.834;2022-12-18T14:02:13;18.10;;;7.57;;
75935;SDS011;64614;32.062;34.834;2022-12-18T14:04:44;17.70;;;6.95;;
75935;SDS011;64614;32.062;34.834;2022-12-18T14:07:15;17.20;;;6.78;;
75935;SDS011;64614;32.062;34.834;2022-12-18T14:09:53;15.23;;;6.72;;
75935;SDS011;64614;32.062;34.834;2022-12-18T14:12:31;22.65;;;6.32;;
75935;SDS011;64614;32.062;34.834;2022-12-18T14:17:59;15.88;;;6.60;;
75935;SDS011;64614;32.062;34.834;2022-12-18T14:20:29;15.52;;;6.65;;
75935;SDS011;64614;32.062;34.834;2022-12-18T14:22:57;18.80;;;6.57;;
75935;SDS011;64614;32.062;34.834;2022-12-18T14:25:29;22.67;;;6.82;;
75935;SDS011;64614;32.062;34.834;2022-12-18T14:30:38;16.40;;;5.85;;
75935;SDS011;64614;32.062;34.834;2022-12-18T14:35:51;16.85;;;5.95;;
75935;SDS011;64614;32.062;34.834;2022-12-18T14:38:38;15.45;;;6.13;;
75935;SDS011;64614;32.062;34.834;2022-12-18T14:41:06;14.45;;;6.10;;
75935;SDS011;64614;32.062;34.834;2022-12-18T14:43:36;17.88;;;6.45;;
75935;SDS011;64614;32.062;34.834;2022-12-18T14:46:05;11.35;;;5.25;;
75935;SDS011;64614;32.062;34.834;2022-12-18T14:48:54;13.32;;;6.10;;
75935;SDS011;64614;32.062;34.834;2022-12-18T14:51:22;11.68;;;5.70;;
75935;SDS011;64614;32.062;34.834;2022-12-18T14:53:55;14.20;;;5.78;;
75935;SDS011;64614;32.062;34.834;2022-12-18T14:56:27;15.00;;;5.85;;
75935;SDS011;64614;32.062;34.834;2022-12-18T14:58:58;12.05;;;5.55;;
75935;SDS011;64614;32.062;34.834;2022-12-18T15:03:53;12.05;;;5.63;;
75935;SDS011;64614;32.062;34.834;2022-12-18T15:06:29;15.75;;;5.90;;
75935;SDS011;64614;32.062;34.834;2022-12-18T15:08:56;13.00;;;5.13;;
75935;SDS011;64614;32.062;34.834;2022-12-18T15:11:29;13.13;;;5.78;;
75935;SDS011;64614;32.062;34.834;2022-12-18T15:14:21;15.65;;;5.93;;
75935;SDS011;64614;32.062;34.834;2022-12-18T15:16:54;13.18;;;5.60;;
75935;SDS011;64614;32.062;34.834;2022-12-18T15:19:21;12.60;;;5.50;;
75935;SDS011;64614;32.062;34.834;2022-12-18T15:21:52;12.48;;;5.95;;
75935;SDS011;64614;32.062;34.834;2022-12-18T15:24:18;14.05;;;5.60;;
75935;SDS011;64614;32.062;34.834;2022-12-18T15:26:52;12.82;;;5.90;;
75935;SDS011;64614;32.062;34.834;2022-12-18T15:29:21;10.25;;;5.80;;
75935;SDS011;64614;32.062;34.834;2022-12-18T15:32:10;13.98;;;5.95;;
75935;SDS011;64614;32.062;34.834;2022-12-18T15:34:44;11.63;;;5.65;;
75935;SDS011;64614;32.062;34.834;2022-12-18T15:37:09;13.63;;;5.60;;
75935;SDS011;64614;32.062;34.834;2022-12-18T15:39:35;14.07;;;5.72;;
75935;SDS011;64614;32.062;34.834;2022-12-18T15:42:02;11.57;;;5.50;;
75935;SDS011;64614;32.062;34.834;2022-12-18T15:44:46;14.52;;;6.50;;
75935;SDS011;64614;32.062;34.834;2022-12-18T15:47:13;15.13;;;6.78;;
75935;SDS011;64614;32.062;34.834;2022-12-18T15:49:39;18.77;;;6.30;;
75935;SDS011;64614;32.062;34.834;2022-12-18T15:52:05;17.20;;;6.47;;
75935;SDS011;64614;32.062;34.834;2022-12-18T15:54:34;15.38;;;6.53;;
75935;SDS011;64614;32.062;34.834;2022-12-18T15:57:18;16.65;;;6.60;;
75935;SDS011;64614;32.062;34.834;2022-12-18T15:59:53;18.77;;;6.68;;
75935;SDS011;64614;32.062;34.834;2022-12-18T16:02:23;17.15;;;6.47;;
75935;SDS011;64614;32.062;34.834;2022-12-18T16:04:50;14.05;;;5.93;;
75935;SDS011;64614;32.062;34.834;2022-12-18T16:07:17;15.80;;;6.80;;
75935;SDS011;64614;32.062;34.834;2022-12-18T16:09:43;15.68;;;6.72;;
75935;SDS011;64614;32.062;34.834;2022-12-18T16:12:19;14.73;;;6.70;;
75935;SDS011;64614;32.062;34.834;2022-12-18T16:14:47;15.05;;;6.72;;
75935;SDS011;64614;32.062;34.834;2022-12-18T16:17:13;21.10;;;7.38;;
75935;SDS011;64614;32.062;34.834;2022-12-18T16:19:41;14.27;;;6.10;;
75935;SDS011;64614;32.062;34.834;2022-12-18T16:22:08;16.38;;;6.35;;
75935;SDS011;64614;32.062;34.834;2022-12-18T16:24:49;16.67;;;6.95;;
75935;SDS011;64614;32.062;34.834;2022-12-18T16:27:15;17.02;;;6.75;;
75935;SDS011;64614;32.062;34.834;2022-12-18T16:29:41;19.17;;;7.45;;
75935;SDS011;64614;32.062;34.834;2022-12-18T16:32:08;17.40;;;6.35;;
75935;SDS011;64614;32.062;34.834;2022-12-18T16:34:38;15.48;;;7.28;;
75935;SDS011;64614;32.062;34.834;2022-12-18T16:37:05;15.50;;;6.57;;
75935;SDS011;64614;32.062;34.834;2022-12-18T16:39:32;15.13;;;6.65;;
75935;SDS011;64614;32.062;34.834;2022-12-18T16:41:59;16.58;;;6.85;;
75935;SDS011;64614;32.062;34.834;2022-12-18T16:44:26;17.40;;;7.30;;
75935;SDS011;64614;32.062;34.834;2022-12-18T16:46:53;16.00;;;7.28;;
75935;SDS011;64614;32.062;34.834;2022-12-18T16:49:19;14.55;;;6.97;;
75935;SDS011;64614;32.062;34.834;2022-12-18T16:51:45;18.60;;;7.63;;
75935;SDS011;64614;32.062;34.834;2022-12-18T16:54:12;19.73;;;7.05;;
75935;SDS011;64614;32.062;34.834;2022-12-18T16:56:38;20.60;;;7.45;;
75935;SDS011;64614;32.062;34.834;2022-12-18T16:59:04;18.40;;;7.60;;
75935;SDS011;64614;32.062;34.834;2022-12-18T17:01:31;21.05;;;7.80;;
75935;SDS011;64614;32.062;34.834;2022-12-18T17:03:58;21.90;;;7.93;;
75935;SDS011;64614;32.062;34.834;2022-12-18T17:06:26;22.90;;;8.20;;
75935;SDS011;64614;32.062;34.834;2022-12-18T17:08:57;18.58;;;7.07;;
75935;SDS011;64614;32.062;34.834;2022-12-18T17:11:24;16.30;;;7.57;;
75935;SDS011;64614;32.062;34.834;2022-12-18T17:13:51;33.03;;;9.50;;
75935;SDS011;64614;32.062;34.834;2022-12-18T17:16:17;21.00;;;8.35;;
75935;SDS011;64614;32.062;34.834;2022-12-18T17:18:46;20.23;;;8.60;;
75935;SDS011;64614;32.062;34.834;2022-12-18T17:24:25;18.80;;;8.35;;
75935;SDS011;64614;32.062;34.834;2022-12-18T17:26:51;21.42;;;8.38;;
75935;SDS011;64614;32.062;34.834;2022-12-18T17:29:20;16.20;;;8.25;;
75935;SDS011;64614;32.062;34.834;2022-12-18T17:35:19;15.38;;;7.75;;
75935;SDS011;64614;32.062;34.834;2022-12-18T17:37:55;18.83;;;7.72;;
75935;SDS011;64614;32.062;34.834;2022-12-18T17:40:21;17.40;;;7.63;;
75935;SDS011;64614;32.062;34.834;2022-12-18T17:42:51;14.45;;;7.15;;
75935;SDS011;64614;32.062;34.834;2022-12-18T17:47:54;14.50;;;6.90;;
75935;SDS011;64614;32.062;34.834;2022-12-18T17:50:20;16.27;;;7.60;;
75935;SDS011;64614;32.062;34.834;2022-12-18T17:52:46;15.40;;;7.53;;
75935;SDS011;64614;32.062;34.834;2022-12-18T17:55:12;21.17;;;7.28;;
75935;SDS011;64614;32.062;34.834;2022-12-18T17:57:38;14.40;;;7.18;;
75935;SDS011;64614;32.062;34.834;2022-12-18T18:00:07;13.50;;;7.50;;
75935;SDS011;64614;32.062;34.834;2022-12-18T18:05:09;16.42;;;6.97;;
75935;SDS011;64614;32.062;34.834;2022-12-18T18:07:36;13.55;;;7.80;;
75935;SDS011;64614;32.062;34.834;2022-12-18T18:10:03;14.93;;;7.90;;
75935;SDS011;64614;32.062;34.834;2022-12-18T18:12:29;13.95;;;7.43;;
75935;SDS011;64614;32.062;34.834;2022-12-18T18:15:13;13.48;;;7.53;;
75935;SDS011;64614;32.062;34.834;2022-12-18T18:17:39;18.42;;;9.90;;
75935;SDS011;64614;32.062;34.834;2022-12-18T18:20:07;22.50;;;11.10;;
75935;SDS011;64614;32.062;34.834;2022-12-18T18:22:33;21.58;;;11.23;;
75935;SDS011;64614;32.062;34.834;2022-12-18T18:24:59;22.88;;;11.98;;
75935;SDS011;64614;32.062;34.834;2022-12-18T18:27:26;21.27;;;12.45;;
75935;SDS011;64614;32.062;34.834;2022-12-18T18:29:52;24.83;;;12.60;;
75935;SDS011;64614;32.062;34.834;2022-12-18T18:32:17;26.27;;;13.63;;
75935;SDS011;64614;32.062;34.834;2022-12-18T18:34:44;21.58;;;13.20;;
75935;SDS011;64614;32.062;34.834;2022-12-18T18:37:10;27.63;;;13.77;;
75935;SDS011;64614;32.062;34.834;2022-12-18T18:39:36;24.63;;;12.57;;
75935;SDS011;64614;32.062;34.834;2022-12-18T18:42:05;24.10;;;12.38;;
75935;SDS011;64614;32.062;34.834;2022-12-18T18:44:31;24.48;;;12.93;;
75935;SDS011;64614;32.062;34.834;2022-12-18T18:46:59;24.00;;;12.80;;
75935;SDS011;64614;32.062;34.834;2022-12-18T18:49:25;22.10;;;9.68;;
75935;SDS011;64614;32.062;34.834;2022-12-18T18:51:55;22.30;;;8.95;;
75935;SDS011;64614;32.062;34.834;2022-12-18T18:54:21;22.35;;;8.98;;
75935;SDS011;64614;32.062;34.834;2022-12-18T18:56:48;20.17;;;8.57;;
75935;SDS011;64614;32.062;34.834;2022-12-18T18:59:14;21.13;;;8.57;;
75935;SDS011;64614;32.062;34.834;2022-12-18T19:01:40;20.30;;;8.32;;
75935;SDS011;64614;32.062;34.834;2022-12-18T19:04:06;18.70;;;8.23;;
75935;SDS011;64614;32.062;34.834;2022-12-18T19:06:32;17.88;;;8.88;;
75935;SDS011;64614;32.062;34.834;2022-12-18T19:08:57;19.60;;;9.07;;
75935;SDS011;64614;32.062;34.834;2022-12-18T19:11:26;26.88;;;9.25;;
75935;SDS011;64614;32.062;34.834;2022-12-18T19:14:11;19.52;;;8.07;;
75935;SDS011;64614;32.062;34.834;2022-12-18T19:16:40;17.48;;;8.52;;
75935;SDS011;64614;32.062;34.834;2022-12-18T19:19:06;19.45;;;8.77;;
75935;SDS011;64614;32.062;34.834;2022-12-18T19:21:32;18.20;;;8.35;;
75935;SDS011;64614;32.062;34.834;2022-12-18T19:24:00;19.15;;;8.68;;
75935;SDS011;64614;32.062;34.834;2022-12-18T19:26:26;15.80;;;8.00;;
75935;SDS011;64614;32.062;34.834;2022-12-18T19:28:52;19.20;;;8.57;;
75935;SDS011;64614;32.062;34.834;2022-12-18T19:31:20;16.05;;;9.27;;
75935;SDS011;64614;32.062;34.834;2022-12-18T19:33:47;17.23;;;8.15;;
75935;SDS011;64614;32.062;34.834;2022-12-18T19:36:20;16.90;;;8.20;;
75935;SDS011;64614;32.062;34.834;2022-12-18T19:38:50;21.88;;;9.00;;
75935;SDS011;64614;32.062;34.834;2022-12-18T19:41:18;20.15;;;9.50;;
75935;SDS011;64614;32.062;34.834;2022-12-18T19:43:45;40.90;;;19.63;;
75935;SDS011;64614;32.062;34.834;2022-12-18T19:46:13;84.10;;;37.65;;
75935;SDS011;64614;32.062;34.834;2022-12-18T19:48:41;134.93;;;64.20;;
75935;SDS011;64614;32.062;34.834;2022-12-18T19:51:09;182.73;;;80.82;;
75935;SDS011;64614;32.062;34.834;2022-12-18T19:53:38;231.57;;;104.55;;
75935;SDS011;64614;32.062;34.834;2022-12-18T19:56:07;288.10;;;130.73;;
75935;SDS011;64614;32.062;34.834;2022-12-18T20:00:59;395.75;;;181.50;;
75935;SDS011;64614;32.062;34.834;2022-12-18T20:03:25;445.73;;;209.82;;
75935;SDS011;64614;32.062;34.834;2022-12-18T20:05:50;478.00;;;225.35;;
75935;SDS011;64614;32.062;34.834;2022-12-18T20:08:16;501.17;;;241.10;;
75935;SDS011;64614;32.062;34.834;2022-12-18T20:10:42;556.28;;;281.02;;
75935;SDS011;64614;32.062;34.834;2022-12-18T20:13:12;561.40;;;278.73;;
75935;SDS011;64614;32.062;34.834;2022-12-18T20:15:39;518.92;;;252.52;;
75935;SDS011;64614;32.062;34.834;2022-12-18T20:18:05;448.48;;;212.50;;
75935;SDS011;64614;32.062;34.834;2022-12-18T20:20:30;429.50;;;200.77;;
75935;SDS011;64614;32.062;34.834;2022-12-18T20:22:56;413.52;;;182.55;;
75935;SDS011;64614;32.062;34.834;2022-12-18T20:25:22;406.02;;;181.35;;
75935;SDS011;64614;32.062;34.834;2022-12-18T20:27:47;385.35;;;174.30;;
75935;SDS011;64614;32.062;34.834;2022-12-18T20:30:13;368.50;;;165.45;;
75935;SDS011;64614;32.062;34.834;2022-12-18T20:32:39;394.85;;;176.38;;
75935;SDS011;64614;32.062;34.834;2022-12-18T20:35:05;354.30;;;153.98;;
75935;SDS011;64614;32.062;34.834;2022-12-18T20:37:31;318.05;;;143.10;;
75935;SDS011;64614;32.062;34.834;2022-12-18T20:39:57;309.63;;;139.27;;
75935;SDS011;64614;32.062;34.834;2022-12-18T20:42:22;294.58;;;127.97;;
75935;SDS011;64614;32.062;34.834;2022-12-18T20:44:48;275.83;;;119.45;;
75935;SDS011;64614;32.062;34.834;2022-12-18T20:47:14;276.25;;;120.55;;
75935;SDS011;64614;32.062;34.834;2022-12-18T20:49:40;263.90;;;116.93;;
75935;SDS011;64614;32.062;34.834;2022-12-18T20:52:05;246.65;;;108.65;;
75935;SDS011;64614;32.062;34.834;2022-12-18T20:54:31;225.35;;;100.22;;
75935;SDS011;64614;32.062;34.834;2022-12-18T20:56:57;226.88;;;96.10;;
75935;SDS011;64614;32.062;34.834;2022-12-18T20:59:23;205.77;;;90.18;;
75935;SDS011;64614;32.062;34.834;2022-12-18T21:01:50;195.70;;;83.63;;
75935;SDS011;64614;32.062;34.834;2022-12-18T21:04:16;182.93;;;81.10;;
75935;SDS011;64614;32.062;34.834;2022-12-18T21:06:43;175.05;;;75.90;;
75935;SDS011;64614;32.062;34.834;2022-12-18T21:09:08;159.82;;;71.22;;
75935;SDS011;64614;32.062;34.834;2022-12-18T21:11:34;168.05;;;72.35;;
75935;SDS011;64614;32.062;34.834;2022-12-18T21:14:24;152.10;;;66.40;;
75935;SDS011;64614;32.062;34.834;2022-12-18T21:16:52;143.45;;;60.63;;
75935;SDS011;64614;32.062;34.834;2022-12-18T21:19:21;149.20;;;61.97;;
75935;SDS011;64614;32.062;34.834;2022-12-18T21:21:48;136.35;;;56.65;;
75935;SDS011;64614;32.062;34.834;2022-12-18T21:24:16;120.00;;;54.08;;
75935;SDS011;64614;32.062;34.834;2022-12-18T21:26:43;125.07;;;53.03;;
75935;SDS011;64614;32.062;34.834;2022-12-18T21:29:11;99.72;;;47.35;;
75935;SDS011;64614;32.062;34.834;2022-12-18T21:31:39;113.82;;;47.47;;
75935;SDS011;64614;32.062;34.834;2022-12-18T21:34:06;105.43;;;44.53;;
75935;SDS011;64614;32.062;34.834;2022-12-18T21:36:32;98.45;;;43.08;;
75935;SDS011;64614;32.062;34.834;2022-12-18T21:38:59;91.05;;;40.58;;
75935;SDS011;64614;32.062;34.834;2022-12-18T21:41:26;86.85;;;40.88;;
75935;SDS011;64614;32.062;34.834;2022-12-18T21:44:14;87.43;;;38.25;;
75935;SDS011;64614;32.062;34.834;2022-12-18T21:46:42;77.65;;;36.28;;
75935;SDS011;64614;32.062;34.834;2022-12-18T21:49:10;80.50;;;37.15;;
75935;SDS011;64614;32.062;34.834;2022-12-18T21:51:42;77.93;;;36.00;;
75935;SDS011;64614;32.062;34.834;2022-12-18T21:54:10;70.78;;;33.15;;
75935;SDS011;64614;32.062;34.834;2022-12-18T21:59:24;62.83;;;30.83;;
75935;SDS011;64614;32.062;34.834;2022-12-18T22:01:52;60.20;;;28.63;;
75935;SDS011;64614;32.062;34.834;2022-12-18T22:04:23;61.20;;;28.77;;
75935;SDS011;64614;32.062;34.834;2022-12-18T22:06:49;60.47;;;28.17;;
75935;SDS011;64614;32.062;34.834;2022-12-18T22:09:16;62.28;;;30.08;;
75935;SDS011;64614;32.062;34.834;2022-12-18T22:11:43;62.00;;;27.88;;
75935;SDS011;64614;32.062;34.834;2022-12-18T22:14:09;56.13;;;27.65;;
75935;SDS011;64614;32.062;34.834;2022-12-18T22:16:36;51.92;;;26.55;;
75935;SDS011;64614;32.062;34.834;2022-12-18T22:19:04;56.55;;;25.13;;
75935;SDS011;64614;32.062;34.834;2022-12-18T22:21:34;58.10;;;26.95;;
75935;SDS011;64614;32.062;34.834;2022-12-18T22:24:22;54.35;;;25.77;;
75935;SDS011;64614;32.062;34.834;2022-12-18T22:26:49;52.22;;;24.85;;
75935;SDS011;64614;32.062;34.834;2022-12-18T22:29:21;52.80;;;24.50;;
75935;SDS011;64614;32.062;34.834;2022-12-18T22:32:08;50.58;;;24.85;;
75935;SDS011;64614;32.062;34.834;2022-12-18T22:34:39;50.30;;;24.35;;
75935;SDS011;64614;32.062;34.834;2022-12-18T22:37:05;50.53;;;24.77;;
75935;SDS011;64614;32.062;34.834;2022-12-18T22:39:31;50.28;;;24.38;;
75935;SDS011;64614;32.062;34.834;2022-12-18T22:41:58;46.97;;;23.65;;
75935;SDS011;64614;32.062;34.834;2022-12-18T22:44:24;52.33;;;23.65;;
75935;SDS011;64614;32.062;34.834;2022-12-18T22:46:50;46.60;;;23.73;;
75935;SDS011;64614;32.062;34.834;2022-12-18T22:49:18;50.47;;;23.88;;
75935;SDS011;64614;32.062;34.834;2022-12-18T22:51:45;43.25;;;21.98;;
75935;SDS011;64614;32.062;34.834;2022-12-18T22:54:13;43.53;;;21.38;;
75935;SDS011;64614;32.062;34.834;2022-12-18T22:56:39;45.20;;;21.23;;
75935;SDS011;64614;32.062;34.834;2022-12-18T22:59:06;40.78;;;19.15;;
75935;SDS011;64614;32.062;34.834;2022-12-18T23:01:33;41.78;;;20.10;;
75935;SDS011;64614;32.062;34.834;2022-12-18T23:04:03;47.53;;;20.27;;
75935;SDS011;64614;32.062;34.834;2022-12-18T23:06:29;42.03;;;19.30;;
75935;SDS011;64614;32.062;34.834;2022-12-18T23:08:54;37.35;;;17.98;;
75935;SDS011;64614;32.062;34.834;2022-12-18T23:11:22;38.65;;;18.05;;
75935;SDS011;64614;32.062;34.834;2022-12-18T23:13:48;40.60;;;17.98;;
75935;SDS011;64614;32.062;34.834;2022-12-18T23:16:14;36.15;;;17.42;;
75935;SDS011;64614;32.062;34.834;2022-12-18T23:18:42;35.53;;;17.23;;
75935;SDS011;64614;32.062;34.834;2022-12-18T23:23:39;35.05;;;16.58;;
75935;SDS011;64614;32.062;34.834;2022-12-18T23:26:06;32.47;;;15.50;;
75935;SDS011;64614;32.062;34.834;2022-12-18T23:28:37;32.80;;;15.30;;
75935;SDS011;64614;32.062;34.834;2022-12-18T23:31:04;33.85;;;15.48;;
75935;SDS011;64614;32.062;34.834;2022-12-18T23:33:30;30.40;;;15.68;;
75935;SDS011;64614;32.062;34.834;2022-12-18T23:35:57;30.13;;;15.23;;
75935;SDS011;64614;32.062;34.834;2022-12-18T23:38:26;28.27;;;14.80;;
75935;SDS011;64614;32.062;34.834;2022-12-18T23:40:53;31.27;;;15.18;;
75935;SDS011;64614;32.062;34.834;2022-12-18T23:43:20;28.92;;;14.05;;
75935;SDS011;64614;32.062;34.834;2022-12-18T23:45:46;31.23;;;14.27;;
75935;SDS011;64614;32.062;34.834;2022-12-18T23:48:11;28.30;;;13.60;;
75935;SDS011;64614;32.062;34.834;2022-12-18T23:50:37;29.77;;;13.48;;
75935;SDS011;64614;32.062;34.834;2022-12-18T23:53:03;26.92;;;12.75;;
75935;SDS011;64614;32.062;34.834;2022-12-18T23:55:29;26.38;;;13.05;;
75935;SDS011;64614;32.062;34.834;2022-12-18T23:57:55;30.15;;;13.05;;
